createdAt,value
2019-05-23T00:01:34.020Z,6.73
2019-05-23T00:05:04.401Z,6.71
2019-05-23T00:08:29.344Z,6.62
2019-05-23T00:11:44.858Z,6.56
2019-05-23T00:15:13.416Z,6.64
2019-05-23T00:18:21.291Z,6.74
2019-05-23T00:21:25.944Z,6.75
2019-05-23T00:24:31.894Z,6.75
2019-05-23T00:27:37.965Z,6.84
2019-05-23T00:30:53.666Z,7.04
2019-05-23T00:33:59.896Z,7.04
2019-05-23T00:37:07.190Z,7.20
2019-05-23T00:40:13.541Z,7.25
2019-05-23T00:43:19.962Z,7.26
2019-05-23T00:46:26.331Z,7.35
2019-05-23T00:49:32.149Z,7.38
2019-05-23T00:52:38.249Z,7.43
2019-05-23T00:55:44.839Z,7.45
2019-05-23T00:58:51.677Z,7.44
2019-05-23T01:01:58.011Z,7.41
2019-05-23T01:05:04.600Z,7.50
2019-05-23T01:08:11.467Z,7.43
2019-05-23T01:11:21.563Z,7.59
2019-05-23T01:14:28.607Z,7.56
2019-05-23T01:17:35.753Z,7.51
2019-05-23T01:20:59.958Z,7.46
2019-05-23T01:24:12.424Z,7.56
2019-05-23T01:27:18.561Z,7.78
2019-05-23T01:30:28.138Z,7.69
2019-05-23T01:33:34.281Z,7.73
2019-05-23T01:36:40.269Z,7.42
2019-05-23T01:39:45.787Z,7.27
2019-05-23T01:42:51.624Z,7.33
2019-05-23T01:45:56.793Z,7.27
2019-05-23T01:49:03.345Z,7.27
2019-05-23T01:52:08.928Z,7.13
2019-05-23T01:55:14.355Z,7.30
2019-05-23T01:58:20.012Z,7.23
2019-05-23T02:01:25.669Z,7.34
2019-05-23T02:04:31.509Z,7.31
2019-05-23T02:07:37.998Z,7.31
2019-05-23T02:10:43.562Z,7.11
2019-05-23T02:13:48.709Z,7.15
2019-05-23T02:16:54.590Z,7.22
2019-05-23T02:20:01.654Z,7.15
2019-05-23T02:23:07.269Z,7.16
2019-05-23T02:26:12.934Z,7.25
2019-05-23T02:29:18.883Z,7.23
2019-05-23T02:32:26.349Z,7.17
2019-05-23T02:35:33.394Z,7.08
2019-05-23T02:39:12.577Z,7.04
2019-05-23T02:42:27.767Z,7.07
2019-05-23T02:45:46.756Z,7.05
2019-05-23T02:48:52.642Z,7.07
2019-05-23T02:52:00.229Z,7.09
2019-05-23T02:55:09.822Z,7.07
2019-05-23T02:58:36.479Z,7.10
2019-05-23T03:02:30.255Z,7.03
2019-05-23T03:05:37.242Z,6.94
2019-05-23T03:08:44.046Z,6.91
2019-05-23T03:11:52.576Z,6.90
2019-05-23T03:15:01.392Z,6.84
2019-05-23T03:18:07.471Z,7.02
2019-05-23T03:21:13.630Z,6.96
2019-05-23T03:24:20.154Z,7.11
2019-05-23T03:27:26.519Z,7.06
2019-05-23T03:30:33.505Z,7.03
2019-05-23T03:33:38.894Z,7.06
2019-05-23T03:36:44.269Z,7.03
2019-05-23T03:39:51.292Z,7.22
2019-05-23T03:42:57.010Z,7.19
2019-05-23T03:46:06.322Z,7.11
2019-05-23T03:49:11.749Z,7.13
2019-05-23T03:52:19.133Z,7.13
2019-05-23T03:55:24.958Z,7.07
2019-05-23T03:58:31.915Z,7.10
2019-05-23T04:01:47.661Z,7.34
2019-05-23T04:04:45.692Z,7.20
2019-05-23T04:07:51.557Z,7.31
2019-05-23T04:10:57.696Z,7.31
2019-05-23T04:14:03.520Z,7.07
2019-05-23T04:17:08.919Z,7.04
2019-05-23T04:20:14.581Z,7.37
2019-05-23T04:23:19.997Z,7.25
2019-05-23T04:26:25.085Z,7.46
2019-05-23T04:29:32.033Z,7.45
2019-05-23T04:32:37.286Z,7.32
2019-05-23T04:35:42.573Z,7.44
2019-05-23T04:38:48.870Z,7.33
2019-05-23T04:41:54.161Z,7.53
2019-05-23T04:44:59.303Z,7.33
2019-05-23T04:48:04.752Z,7.67
2019-05-23T04:51:10.845Z,7.67
2019-05-23T04:54:17.155Z,7.61
2019-05-23T04:57:24.370Z,8.00
2019-05-23T05:00:31.182Z,7.88
2019-05-23T05:03:37.771Z,7.86
2019-05-23T05:06:43.599Z,8.14
2019-05-23T05:09:49.429Z,7.97
2019-05-23T05:12:55.118Z,7.85
2019-05-23T05:16:00.340Z,7.98
2019-05-23T05:19:06.130Z,7.61
2019-05-23T05:22:11.503Z,7.63
2019-05-23T05:25:17.432Z,7.80
2019-05-23T05:28:22.788Z,7.98
2019-05-23T05:31:28.022Z,8.34
2019-05-23T05:34:33.216Z,8.59
2019-05-23T05:37:38.428Z,9.38
2019-05-23T05:40:43.592Z,10.68
2019-05-23T05:43:49.075Z,11.88
2019-05-23T05:46:54.197Z,11.03
2019-05-23T05:50:00.033Z,10.73
2019-05-23T05:53:05.241Z,11.18
2019-05-23T05:56:11.197Z,10.99
2019-05-23T05:59:17.974Z,11.28
2019-05-23T06:02:25.654Z,12.03
2019-05-23T06:05:41.759Z,12.59
2019-05-23T06:08:48.615Z,12.95
2019-05-23T06:11:53.871Z,12.78
2019-05-23T06:15:00.154Z,13.06
2019-05-23T06:18:06.524Z,13.20
2019-05-23T06:21:14.192Z,12.80
2019-05-23T06:24:37.786Z,12.33
2019-05-23T06:27:26.077Z,12.17
2019-05-23T06:30:33.097Z,12.15
2019-05-23T06:33:38.391Z,11.79
2019-05-23T06:36:43.710Z,12.38
2019-05-23T06:39:49.157Z,12.20
2019-05-23T06:42:54.448Z,11.89
2019-05-23T06:45:59.628Z,12.56
2019-05-23T06:49:05.234Z,12.63
2019-05-23T06:52:10.485Z,13.84
2019-05-23T06:55:15.827Z,13.93
2019-05-23T06:58:21.376Z,13.72
2019-05-23T07:01:27.066Z,14.06
2019-05-23T07:04:32.389Z,13.68
2019-05-23T07:07:39.777Z,13.53
2019-05-23T07:10:45.244Z,13.46
2019-05-23T07:13:50.733Z,13.86
2019-05-23T07:16:55.932Z,13.72
2019-05-23T07:20:01.269Z,14.92
2019-05-23T07:23:09.248Z,14.37
2019-05-23T07:26:14.788Z,14.53
2019-05-23T07:29:21.186Z,14.49
2019-05-23T07:32:26.427Z,14.88
2019-05-23T07:35:31.920Z,15.16
2019-05-23T07:38:37.170Z,15.52
2019-05-23T07:41:42.343Z,15.56
2019-05-23T07:44:49.169Z,15.51
2019-05-23T07:47:55.136Z,15.93
2019-05-23T07:51:00.292Z,15.95
2019-05-23T07:54:23.470Z,16.27
2019-05-23T07:57:29.116Z,16.43
2019-05-23T08:00:38.780Z,16.04
2019-05-23T08:03:46.342Z,16.12
2019-05-23T08:06:52.401Z,16.70
2019-05-23T08:09:57.659Z,16.98
2019-05-23T08:13:03.330Z,17.05
2019-05-23T08:16:08.590Z,16.51
2019-05-23T08:19:19.207Z,16.70
2019-05-23T08:22:21.677Z,17.46
2019-05-23T08:25:27.218Z,16.86
2019-05-23T08:28:33.437Z,17.61
2019-05-23T08:31:38.666Z,17.71
2019-05-23T08:34:43.816Z,17.94
2019-05-23T08:37:49.106Z,18.30
2019-05-23T08:40:56.112Z,19.20
2019-05-23T08:44:01.618Z,18.79
2019-05-23T08:47:08.346Z,19.28
2019-05-23T08:50:14.264Z,19.35
2019-05-23T08:53:19.489Z,19.52
2019-05-23T08:56:25.004Z,20.01
2019-05-23T08:59:30.384Z,20.44
2019-05-23T09:02:35.919Z,19.95
2019-05-23T09:05:41.452Z,19.83
2019-05-23T09:08:47.283Z,20.14
2019-05-23T09:11:53.142Z,19.97
2019-05-23T09:14:58.504Z,21.09
2019-05-23T09:18:04.135Z,20.61
2019-05-23T09:21:09.737Z,21.01
2019-05-23T09:24:15.946Z,20.32
2019-05-23T09:27:21.132Z,21.79
2019-05-23T09:30:27.680Z,21.56
2019-05-23T09:33:33.166Z,21.52
2019-05-23T09:36:38.464Z,21.15
2019-05-23T09:39:44.198Z,21.42
2019-05-23T09:42:49.469Z,21.19
2019-05-23T09:45:54.558Z,20.47
2019-05-23T09:48:59.780Z,20.64
2019-05-23T09:52:06.585Z,20.45
2019-05-23T09:55:12.066Z,20.67
2019-05-23T09:58:17.341Z,20.06
2019-05-23T10:01:22.536Z,20.63
2019-05-23T10:04:27.849Z,20.38
2019-05-23T10:07:32.983Z,20.25
2019-05-23T10:10:38.183Z,20.06
2019-05-23T10:13:43.300Z,20.39
2019-05-23T10:16:48.631Z,20.15
2019-05-23T10:19:54.918Z,20.22
2019-05-23T10:23:00.051Z,21.09
2019-05-23T10:26:06.232Z,21.26
2019-05-23T10:29:12.478Z,21.67
2019-05-23T10:32:18.037Z,21.91
2019-05-23T10:35:24.123Z,22.49
2019-05-23T10:38:29.725Z,21.95
2019-05-23T10:41:35.156Z,22.28
2019-05-23T10:44:40.319Z,23.41
2019-05-23T10:47:47.242Z,23.44
2019-05-23T10:50:53.240Z,23.98
2019-05-23T10:53:58.598Z,23.32
2019-05-23T10:57:03.869Z,23.70
2019-05-23T11:00:11.453Z,23.20
2019-05-23T11:03:17.547Z,22.32
2019-05-23T11:06:22.630Z,22.20
2019-05-23T11:09:37.230Z,21.39
2019-05-23T11:12:34.784Z,21.79
2019-05-23T11:15:40.316Z,21.36
2019-05-23T11:18:47.740Z,21.44
2019-05-23T11:24:57.323Z,21.98
2019-05-23T11:28:04.944Z,22.36
2019-05-23T11:31:10.606Z,22.04
2019-05-23T11:34:16.045Z,21.81
2019-05-23T11:37:21.344Z,22.31
2019-05-23T11:40:26.542Z,22.75
2019-05-23T11:43:31.835Z,22.38
2019-05-23T11:46:38.017Z,22.92
2019-05-23T11:49:44.645Z,23.00
2019-05-23T11:52:50.573Z,22.70
2019-05-23T11:55:56.002Z,22.93
2019-05-23T11:59:02.017Z,22.38
2019-05-23T12:02:38.412Z,21.80
2019-05-23T12:05:44.027Z,22.49
2019-05-23T12:08:49.331Z,21.97
2019-05-23T12:11:54.485Z,21.57
2019-05-23T12:14:59.902Z,21.70
2019-05-23T12:18:07.238Z,21.69
2019-05-23T12:21:12.532Z,21.98
2019-05-23T12:24:17.680Z,21.59
2019-05-23T12:27:22.875Z,21.64
2019-05-23T12:30:28.696Z,21.49
2019-05-23T12:33:34.365Z,21.90
2019-05-23T12:36:40.193Z,22.04
2019-05-23T12:39:45.443Z,22.09
2019-05-23T12:42:50.653Z,21.61
2019-05-23T12:45:55.825Z,21.73
2019-05-23T12:49:16.040Z,22.34
2019-05-23T12:52:21.720Z,22.23
2019-05-23T12:55:27.016Z,22.03
2019-05-23T12:58:34.150Z,22.00
2019-05-23T13:01:41.892Z,22.09
2019-05-23T13:04:47.303Z,22.03
2019-05-23T13:07:52.460Z,21.85
2019-05-23T13:10:57.625Z,21.73
2019-05-23T13:14:02.858Z,21.78
2019-05-23T13:17:07.930Z,22.53
2019-05-23T13:20:13.482Z,23.09
2019-05-23T13:23:21.150Z,23.54
2019-05-23T13:26:25.621Z,22.46
2019-05-23T13:29:31.059Z,23.35
2019-05-23T13:32:36.226Z,23.11
2019-05-23T13:35:42.030Z,23.59
2019-05-23T13:38:47.807Z,23.15
2019-05-23T13:41:53.137Z,22.14
2019-05-23T13:44:58.952Z,22.57
2019-05-23T13:48:04.691Z,23.24
2019-05-23T13:51:09.835Z,23.19
2019-05-23T13:54:14.995Z,23.78
2019-05-23T13:57:20.317Z,23.38
2019-05-23T14:00:27.768Z,23.39
2019-05-23T14:03:32.925Z,23.86
2019-05-23T14:06:40.594Z,23.32
2019-05-23T14:09:45.887Z,23.49
2019-05-23T14:12:52.279Z,23.63
2019-05-23T14:15:57.431Z,22.88
2019-05-23T14:19:03.162Z,22.81
2019-05-23T14:22:08.455Z,22.24
2019-05-23T14:25:14.347Z,23.01
2019-05-23T14:28:20.537Z,22.63
2019-05-23T14:31:25.960Z,22.85
2019-05-23T14:34:31.693Z,23.32
2019-05-23T14:37:42.785Z,23.56
2019-05-23T14:40:49.219Z,23.85
2019-05-23T14:43:54.514Z,23.68
2019-05-23T14:47:18.650Z,23.82
2019-05-23T14:50:58.007Z,23.33
2019-05-23T14:54:17.912Z,23.61
2019-05-23T14:57:23.411Z,23.30
2019-05-23T15:00:29.515Z,22.80
2019-05-23T15:03:35.819Z,22.80
2019-05-23T15:06:41.738Z,22.61
2019-05-23T15:09:47.426Z,22.83
2019-05-23T15:12:52.683Z,22.54
2019-05-23T15:15:57.815Z,22.39
2019-05-23T15:19:03.320Z,22.21
2019-05-23T15:22:08.670Z,21.83
2019-05-23T15:25:14.003Z,21.94
2019-05-23T15:28:19.252Z,22.45
2019-05-23T15:31:25.266Z,23.16
2019-05-23T15:34:30.589Z,24.07
2019-05-23T15:37:35.882Z,23.65
2019-05-23T15:40:41.473Z,24.28
2019-05-23T15:43:46.907Z,23.68
2019-05-23T15:46:52.401Z,23.88
2019-05-23T15:49:59.705Z,23.86
2019-05-23T15:53:25.077Z,23.78
2019-05-23T15:56:46.762Z,22.51
2019-05-23T16:00:12.080Z,22.66
2019-05-23T16:03:26.906Z,21.81
2019-05-23T16:06:33.153Z,21.88
2019-05-23T16:09:38.440Z,21.75
2019-05-23T16:12:43.922Z,21.85
2019-05-23T16:15:50.555Z,22.05
2019-05-23T16:18:55.892Z,21.75
2019-05-23T16:22:01.105Z,21.78
2019-05-23T16:25:06.615Z,21.85
2019-05-23T16:28:12.994Z,21.60
2019-05-23T16:31:19.374Z,21.32
2019-05-23T16:34:24.458Z,21.19
2019-05-23T16:37:29.695Z,21.16
2019-05-23T16:40:34.990Z,21.29
2019-05-23T16:43:40.304Z,20.94
2019-05-23T16:46:45.720Z,21.28
2019-05-23T16:49:51.945Z,21.13
2019-05-23T16:52:57.097Z,21.47
2019-05-23T16:56:07.977Z,21.57
2019-05-23T16:59:21.894Z,21.63
2019-05-23T17:02:48.808Z,21.61
2019-05-23T17:06:13.925Z,21.55
2019-05-23T17:09:31.781Z,21.90
2019-05-23T17:12:47.009Z,21.73
2019-05-23T17:15:58.182Z,21.87
2019-05-23T17:19:19.665Z,21.75
2019-05-23T17:23:02.126Z,22.04
2019-05-23T17:26:12.614Z,22.06
2019-05-23T17:29:29.412Z,21.85
2019-05-23T17:32:35.648Z,21.81
2019-05-23T17:35:41.017Z,21.15
2019-05-23T17:38:46.514Z,20.56
2019-05-23T17:41:51.905Z,20.30
2019-05-23T17:44:57.160Z,20.12
2019-05-23T17:48:02.434Z,19.95
2019-05-23T17:51:07.672Z,19.89
2019-05-23T17:54:13.322Z,19.65
2019-05-23T17:57:18.534Z,19.63
2019-05-23T18:00:27.229Z,19.40
2019-05-23T18:03:32.938Z,19.28
2019-05-23T18:06:38.673Z,19.28
2019-05-23T18:09:43.815Z,19.14
2019-05-23T18:12:49.346Z,18.97
2019-05-23T18:15:55.519Z,18.72
2019-05-23T18:19:00.919Z,18.78
2019-05-23T18:22:08.451Z,18.70
2019-05-23T18:25:15.497Z,18.75
2019-05-23T18:28:22.827Z,18.66
2019-05-23T18:31:29.613Z,18.52
2019-05-23T18:34:35.690Z,18.38
2019-05-23T18:37:41.868Z,18.12
2019-05-23T18:41:01.526Z,17.96
2019-05-23T18:43:55.124Z,17.94
2019-05-23T18:47:02.393Z,17.73
2019-05-23T18:50:09.799Z,17.70
2019-05-23T18:53:15.682Z,17.35
2019-05-23T18:56:21.054Z,17.12
2019-05-23T18:59:27.252Z,16.88
2019-05-23T19:02:32.558Z,16.79
2019-05-23T19:05:37.917Z,16.54
2019-05-23T19:08:43.063Z,16.30
2019-05-23T19:11:48.398Z,16.10
2019-05-23T19:14:53.595Z,15.85
2019-05-23T19:17:58.737Z,15.68
2019-05-23T19:21:04.125Z,15.54
2019-05-23T19:24:09.395Z,15.43
2019-05-23T19:27:15.555Z,15.20
2019-05-23T19:30:21.383Z,14.97
2019-05-23T19:33:27.211Z,14.78
2019-05-23T19:36:32.754Z,14.54
2019-05-23T19:39:39.435Z,14.45
2019-05-23T19:42:44.615Z,14.45
2019-05-23T19:45:49.803Z,14.21
2019-05-23T19:48:57.448Z,14.05
2019-05-23T19:52:03.416Z,13.91
2019-05-23T19:55:09.123Z,13.94
2019-05-23T19:58:14.809Z,13.86
2019-05-23T20:01:20.616Z,13.73
2019-05-23T20:04:31.288Z,13.61
2019-05-23T20:07:37.290Z,13.46
2019-05-23T20:10:45.168Z,13.35
2019-05-23T20:13:50.419Z,13.24
2019-05-23T20:16:55.673Z,13.12
2019-05-23T20:20:00.842Z,12.97
2019-05-23T20:23:07.995Z,12.92
2019-05-23T20:26:13.144Z,12.81
2019-05-23T20:29:18.416Z,12.75
2019-05-23T20:32:23.616Z,12.65
2019-05-23T20:35:28.882Z,12.54
2019-05-23T20:38:34.414Z,12.48
2019-05-23T20:41:39.960Z,12.33
2019-05-23T20:44:45.071Z,12.27
2019-05-23T20:47:50.396Z,12.38
2019-05-23T20:50:55.669Z,12.36
2019-05-23T20:54:00.815Z,12.50
2019-05-23T20:57:06.099Z,12.43
2019-05-23T21:00:13.092Z,12.23
2019-05-23T21:03:18.841Z,12.03
2019-05-23T21:06:23.994Z,11.87
2019-05-23T21:09:29.140Z,11.73
2019-05-23T21:12:34.277Z,11.67
2019-05-23T21:15:41.009Z,11.68
2019-05-23T21:18:49.724Z,11.66
2019-05-23T21:21:53.235Z,11.58
2019-05-23T21:24:58.374Z,11.52
2019-05-23T21:28:03.598Z,11.42
2019-05-23T21:31:14.238Z,11.27
2019-05-23T21:34:22.071Z,11.44
2019-05-23T21:37:26.269Z,11.29
2019-05-23T21:40:53.099Z,11.38
2019-05-23T21:43:59.210Z,11.27
2019-05-23T21:47:04.372Z,11.15
2019-05-23T21:50:09.725Z,10.98
2019-05-23T21:53:14.965Z,10.84
2019-05-23T21:56:20.164Z,10.86
2019-05-23T21:59:25.294Z,10.85
2019-05-23T22:02:33.391Z,10.75
2019-05-23T22:05:38.520Z,10.62
2019-05-23T22:08:44.168Z,10.65
2019-05-23T22:11:49.992Z,10.56
2019-05-23T22:14:55.611Z,10.58
2019-05-23T22:18:00.767Z,10.41
2019-05-23T22:21:06.070Z,10.38
2019-05-23T22:24:11.939Z,10.42
2019-05-23T22:27:17.265Z,10.34
2019-05-23T22:30:22.738Z,10.23
2019-05-23T22:33:30.430Z,10.08
2019-05-23T22:36:35.631Z,10.00
2019-05-23T22:39:40.806Z,9.90
2019-05-23T22:42:46.010Z,9.97
2019-05-23T22:45:51.146Z,9.98
2019-05-23T22:48:56.316Z,9.87
2019-05-23T22:52:01.478Z,9.76
2019-05-23T22:55:07.923Z,9.72
2019-05-23T22:58:13.123Z,9.71
2019-05-23T23:01:18.741Z,9.65
2019-05-23T23:04:26.455Z,9.54
2019-05-23T23:07:31.706Z,9.44
2019-05-23T23:10:37.098Z,9.46
2019-05-23T23:13:42.442Z,9.57
2019-05-23T23:16:47.882Z,9.56
2019-05-23T23:19:53.417Z,9.50
2019-05-23T23:22:58.549Z,9.47
2019-05-23T23:26:03.706Z,9.30
2019-05-23T23:29:09.021Z,9.29
2019-05-23T23:32:14.219Z,9.28
2019-05-23T23:35:19.447Z,9.30
2019-05-23T23:38:24.700Z,9.28
2019-05-23T23:41:29.837Z,9.18
2019-05-23T23:44:34.200Z,9.27
2019-05-23T23:47:57.250Z,9.22
2019-05-23T23:51:20.381Z,9.21
2019-05-23T23:54:43.439Z,9.08
2019-05-23T23:57:59.704Z,9.19
